Terminal Aerodrome Forecast
Issued by NWS

Current Version | Previous Version | Graphics & Text | Print | Product List | Glossary On
Versions: 1 2 3 4 5 6 7 8 9 10 11 12 13 14 15 16 17 18 19
810
FTUS41 KILN 221742 CCA
TAFLCK
TAF COR
KLCK 221742Z 2218/2318 07006KT P6SM SCT080 BKN120
     FM222300 04010KT P6SM VCSH SCT025 OVC060
      TEMPO 2223/2303 -SHRA
     FM230700 03012KT 5SM -SHRA BR SCT012 OVC035
     FM231000 02012KT 2SM -SHRA BR OVC025
     FM231500 01012KT 5SM -SHRA BR OVC012
      AMD NOT SKED=

USA.gov is the U.S. government's official web portal to all federal, state and local government web resources and services.